Terminal Aerodrome Forecast
Issued by NWS

Home | Current Version | Previous Version | Text Only | Print | Product List | Glossary On
Versions: 1 2 3 4 5 6 7 8 9 10 11 12 13 14 15 16 17 18 19 20 21 22 23 24 25 26
000
FTUS42 TJSJ 062326
TAFJPS
TAF
TJPS 062326Z 0700/0724 12011G21KT P6SM FEW025 FEW035
     FM070200 VRB06KT P6SM FEW025 FEW035
     FM071400 11014KT P6SM FEW025 FEW035
     FM072300 09009KT P6SM FEW025 FEW035
     AMD NOT SKED 0711/0703=

USA.gov is the U.S. government's official web portal to all federal, state and local government web resources and services.